sensor_id;sensor_type;location;lat;lon;timestamp;noise_LAeq;noise_LA_min;noise_LA_max;noise_LA01;noise_LA95
69619;Laerm;57653;51.434;5.984;2023-05-29T00:00:05;37.37;34.01;46.30;;
69619;Laerm;57653;51.434;5.984;2023-05-29T00:00:18;36.12;33.86;44.87;;
69619;Laerm;57653;51.434;5.984;2023-05-29T00:00:30;34.67;33.41;39.05;;
69619;Laerm;57653;51.434;5.984;2023-05-29T00:00:41;35.13;33.39;40.20;;
69619;Laerm;57653;51.434;5.984;2023-05-29T00:00:52;36.40;34.43;46.76;;
69619;Laerm;57653;51.434;5.984;2023-05-29T00:01:02;39.30;34.89;50.82;;
69619;Laerm;57653;51.434;5.984;2023-05-29T00:01:13;37.51;34.27;47.33;;
69619;Laerm;57653;51.434;5.984;2023-05-29T00:01:23;36.41;34.26;43.46;;
69619;Laerm;57653;51.434;5.984;2023-05-29T00:01:34;38.80;36.24;45.68;;
69619;Laerm;57653;51.434;5.984;2023-05-29T00:01:46;38.74;34.34;48.72;;
69619;Laerm;57653;51.434;5.984;2023-05-29T00:01:56;36.02;33.90;42.95;;
69619;Laerm;57653;51.434;5.984;2023-05-29T00:02:06;37.80;33.88;50.53;;
69619;Laerm;57653;51.434;5.984;2023-05-29T00:02:16;44.86;35.16;63.31;;
69619;Laerm;57653;51.434;5.984;2023-05-29T00:02:27;40.17;34.40;54.52;;
69619;Laerm;57653;51.434;5.984;2023-05-29T00:02:37;36.65;33.57;49.25;;
69619;Laerm;57653;51.434;5.984;2023-05-29T00:02:47;35.15;33.74;40.01;;
69619;Laerm;57653;51.434;5.984;2023-05-29T00:02:58;35.81;33.95;43.79;;
69619;Laerm;57653;51.434;5.984;2023-05-29T00:03:09;35.19;33.58;41.37;;
69619;Laerm;57653;51.434;5.984;2023-05-29T00:03:19;35.45;33.81;41.07;;
69619;Laerm;57653;51.434;5.984;2023-05-29T00:03:29;35.30;33.54;43.76;;
69619;Laerm;57653;51.434;5.984;2023-05-29T00:03:43;38.92;34.27;56.29;;
69619;Laerm;57653;51.434;5.984;2023-05-29T00:03:53;35.65;34.08;40.98;;
69619;Laerm;57653;51.434;5.984;2023-05-29T00:04:03;39.17;34.17;50.43;;
69619;Laerm;57653;51.434;5.984;2023-05-29T00:04:13;36.78;34.34;44.20;;
69619;Laerm;57653;51.434;5.984;2023-05-29T00:04:24;38.87;34.92;53.87;;
69619;Laerm;57653;51.434;5.984;2023-05-29T00:04:34;36.98;34.58;48.38;;
69619;Laerm;57653;51.434;5.984;2023-05-29T00:04:45;37.82;34.58;52.00;;
69619;Laerm;57653;51.434;5.984;2023-05-29T00:04:56;36.22;33.98;41.75;;
69619;Laerm;57653;51.434;5.984;2023-05-29T00:05:06;35.73;33.97;43.77;;
69619;Laerm;57653;51.434;5.984;2023-05-29T00:05:16;35.02;33.74;37.03;;
69619;Laerm;57653;51.434;5.984;2023-05-29T00:05:27;38.73;34.12;52.71;;
69619;Laerm;57653;51.434;5.984;2023-05-29T00:05:37;40.57;34.61;52.86;;
69619;Laerm;57653;51.434;5.984;2023-05-29T00:05:47;35.87;34.21;43.71;;
69619;Laerm;57653;51.434;5.984;2023-05-29T00:05:59;41.97;34.46;54.64;;
69619;Laerm;57653;51.434;5.984;2023-05-29T00:06:10;42.29;35.95;59.61;;
69619;Laerm;57653;51.434;5.984;2023-05-29T00:06:21;42.24;35.07;58.18;;
69619;Laerm;57653;51.434;5.984;2023-05-29T00:06:31;37.61;35.02;46.69;;
69619;Laerm;57653;51.434;5.984;2023-05-29T00:06:41;36.08;34.42;42.89;;
69619;Laerm;57653;51.434;5.984;2023-05-29T00:06:52;36.74;34.18;43.54;;
69619;Laerm;57653;51.434;5.984;2023-05-29T00:07:02;40.51;34.20;52.71;;
69619;Laerm;57653;51.434;5.984;2023-05-29T00:07:12;38.46;34.87;47.32;;
69619;Laerm;57653;51.434;5.984;2023-05-29T00:07:23;35.56;34.27;40.72;;
69619;Laerm;57653;51.434;5.984;2023-05-29T00:07:33;36.02;34.38;40.88;;
69619;Laerm;57653;51.434;5.984;2023-05-29T00:07:43;37.92;34.51;49.28;;
69619;Laerm;57653;51.434;5.984;2023-05-29T00:07:53;38.04;35.10;50.44;;
69619;Laerm;57653;51.434;5.984;2023-05-29T00:08:04;37.25;34.66;50.43;;
69619;Laerm;57653;51.434;5.984;2023-05-29T00:08:14;36.14;34.44;44.66;;
69619;Laerm;57653;51.434;5.984;2023-05-29T00:08:25;38.46;34.67;48.11;;
69619;Laerm;57653;51.434;5.984;2023-05-29T00:08:36;48.38;37.47;60.92;;
69619;Laerm;57653;51.434;5.984;2023-05-29T00:08:46;46.23;35.85;61.86;;
69619;Laerm;57653;51.434;5.984;2023-05-29T00:08:56;44.02;34.26;56.16;;
69619;Laerm;57653;51.434;5.984;2023-05-29T00:09:06;36.10;34.14;41.52;;
69619;Laerm;57653;51.434;5.984;2023-05-29T00:09:17;36.00;33.85;49.00;;
69619;Laerm;57653;51.434;5.984;2023-05-29T00:09:27;35.90;34.08;40.93;;
69619;Laerm;57653;51.434;5.984;2023-05-29T00:09:38;39.71;34.63;50.66;;
69619;Laerm;57653;51.434;5.984;2023-05-29T00:09:48;37.59;33.40;50.09;;
69619;Laerm;57653;51.434;5.984;2023-05-29T00:09:58;35.10;33.68;37.77;;
69619;Laerm;57653;51.434;5.984;2023-05-29T00:10:09;34.93;33.81;36.43;;
69619;Laerm;57653;51.434;5.984;2023-05-29T00:10:20;40.69;34.53;51.91;;
69619;Laerm;57653;51.434;5.984;2023-05-29T00:10:30;48.49;38.83;61.65;;
69619;Laerm;57653;51.434;5.984;2023-05-29T00:10:41;40.73;35.58;50.52;;
69619;Laerm;57653;51.434;5.984;2023-05-29T00:10:51;39.92;35.41;50.91;;
69619;Laerm;57653;51.434;5.984;2023-05-29T00:11:01;38.05;34.86;47.41;;
69619;Laerm;57653;51.434;5.984;2023-05-29T00:11:12;41.38;35.33;56.30;;
69619;Laerm;57653;51.434;5.984;2023-05-29T00:11:22;37.29;33.95;47.42;;
69619;Laerm;57653;51.434;5.984;2023-05-29T00:11:33;35.66;34.29;39.33;;
69619;Laerm;57653;51.434;5.984;2023-05-29T00:11:43;35.01;33.95;36.50;;
69619;Laerm;57653;51.434;5.984;2023-05-29T00:11:53;35.72;34.06;40.90;;
69619;Laerm;57653;51.434;5.984;2023-05-29T00:12:04;35.36;33.84;39.63;;
69619;Laerm;57653;51.434;5.984;2023-05-29T00:12:15;37.46;34.25;50.40;;
69619;Laerm;57653;51.434;5.984;2023-05-29T00:12:26;37.38;34.02;51.39;;
69619;Laerm;57653;51.434;5.984;2023-05-29T00:12:36;39.08;34.06;50.56;;
69619;Laerm;57653;51.434;5.984;2023-05-29T00:12:46;37.63;34.81;45.96;;
69619;Laerm;57653;51.434;5.984;2023-05-29T00:12:57;40.52;36.65;51.86;;
69619;Laerm;57653;51.434;5.984;2023-05-29T00:13:07;43.40;37.53;57.17;;
69619;Laerm;57653;51.434;5.984;2023-05-29T00:13:17;43.38;36.98;61.10;;
69619;Laerm;57653;51.434;5.984;2023-05-29T00:13:27;41.90;36.41;54.97;;
69619;Laerm;57653;51.434;5.984;2023-05-29T00:13:38;43.07;35.60;57.01;;
69619;Laerm;57653;51.434;5.984;2023-05-29T00:13:48;36.73;34.53;43.40;;
69619;Laerm;57653;51.434;5.984;2023-05-29T00:13:58;38.13;35.59;46.96;;
69619;Laerm;57653;51.434;5.984;2023-05-29T00:14:08;37.28;34.61;50.47;;
69619;Laerm;57653;51.434;5.984;2023-05-29T00:14:23;36.24;34.25;44.12;;
69619;Laerm;57653;51.434;5.984;2023-05-29T00:14:34;36.64;34.33;45.17;;
69619;Laerm;57653;51.434;5.984;2023-05-29T00:14:44;39.66;34.44;51.73;;
69619;Laerm;57653;51.434;5.984;2023-05-29T00:14:54;37.57;34.57;48.57;;
69619;Laerm;57653;51.434;5.984;2023-05-29T00:15:05;46.00;35.61;60.50;;
69619;Laerm;57653;51.434;5.984;2023-05-29T00:15:15;47.88;36.80;61.58;;
69619;Laerm;57653;51.434;5.984;2023-05-29T00:15:25;45.61;35.98;61.58;;
69619;Laerm;57653;51.434;5.984;2023-05-29T00:15:36;36.31;34.42;41.25;;
69619;Laerm;57653;51.434;5.984;2023-05-29T00:15:46;36.32;34.51;42.96;;
69619;Laerm;57653;51.434;5.984;2023-05-29T00:15:57;35.96;34.24;40.97;;
69619;Laerm;57653;51.434;5.984;2023-05-29T00:16:09;35.90;34.16;38.63;;
69619;Laerm;57653;51.434;5.984;2023-05-29T00:16:19;36.09;34.30;43.86;;
69619;Laerm;57653;51.434;5.984;2023-05-29T00:16:29;46.06;34.50;59.88;;
69619;Laerm;57653;51.434;5.984;2023-05-29T00:16:40;46.71;38.21;57.09;;
69619;Laerm;57653;51.434;5.984;2023-05-29T00:16:50;41.75;35.48;53.72;;
69619;Laerm;57653;51.434;5.984;2023-05-29T00:17:01;36.12;34.28;39.74;;
69619;Laerm;57653;51.434;5.984;2023-05-29T00:17:12;35.98;34.15;39.91;;
69619;Laerm;57653;51.434;5.984;2023-05-29T00:17:25;35.84;34.23;39.85;;
69619;Laerm;57653;51.434;5.984;2023-05-29T00:17:35;36.77;34.31;42.37;;
69619;Laerm;57653;51.434;5.984;2023-05-29T00:17:45;37.82;35.75;42.18;;
69619;Laerm;57653;51.434;5.984;2023-05-29T00:17:56;39.16;35.20;47.40;;
69619;Laerm;57653;51.434;5.984;2023-05-29T00:18:06;38.59;34.35;51.24;;
69619;Laerm;57653;51.434;5.984;2023-05-29T00:18:17;42.53;35.03;56.80;;
69619;Laerm;57653;51.434;5.984;2023-05-29T00:18:27;41.37;35.85;52.94;;
69619;Laerm;57653;51.434;5.984;2023-05-29T00:18:37;45.26;37.96;61.59;;
69619;Laerm;57653;51.434;5.984;2023-05-29T00:18:55;51.16;39.36;66.23;;
69619;Laerm;57653;51.434;5.984;2023-05-29T00:19:05;43.06;36.56;55.17;;
69619;Laerm;57653;51.434;5.984;2023-05-29T00:19:16;47.21;36.96;60.44;;
69619;Laerm;57653;51.434;5.984;2023-05-29T00:19:27;45.98;35.17;61.33;;
69619;Laerm;57653;51.434;5.984;2023-05-29T00:19:37;41.76;35.23;55.90;;
69619;Laerm;57653;51.434;5.984;2023-05-29T00:19:47;39.83;35.45;47.72;;
69619;Laerm;57653;51.434;5.984;2023-05-29T00:19:58;36.69;34.61;41.32;;
69619;Laerm;57653;51.434;5.984;2023-05-29T00:20:09;38.36;36.10;42.38;;
69619;Laerm;57653;51.434;5.984;2023-05-29T00:20:20;42.34;35.85;54.01;;
69619;Laerm;57653;51.434;5.984;2023-05-29T00:20:30;43.61;35.55;54.17;;
69619;Laerm;57653;51.434;5.984;2023-05-29T00:20:44;36.94;34.75;41.79;;
69619;Laerm;57653;51.434;5.984;2023-05-29T00:20:54;40.68;34.64;53.05;;
69619;Laerm;57653;51.434;5.984;2023-05-29T00:21:05;42.00;36.12;55.86;;
69619;Laerm;57653;51.434;5.984;2023-05-29T00:21:16;38.00;35.68;49.01;;
69619;Laerm;57653;51.434;5.984;2023-05-29T00:21:26;42.81;35.51;54.89;;
69619;Laerm;57653;51.434;5.984;2023-05-29T00:21:37;48.06;36.37;63.96;;
69619;Laerm;57653;51.434;5.984;2023-05-29T00:21:47;40.31;35.65;58.63;;
69619;Laerm;57653;51.434;5.984;2023-05-29T00:21:58;40.51;35.37;52.83;;
69619;Laerm;57653;51.434;5.984;2023-05-29T00:22:08;38.93;34.61;48.07;;
69619;Laerm;57653;51.434;5.984;2023-05-29T00:22:19;36.10;34.50;42.80;;
69619;Laerm;57653;51.434;5.984;2023-05-29T00:22:29;35.38;34.07;37.71;;
69619;Laerm;57653;51.434;5.984;2023-05-29T00:22:39;35.89;34.29;39.54;;
69619;Laerm;57653;51.434;5.984;2023-05-29T00:22:50;36.76;34.45;45.83;;
69619;Laerm;57653;51.434;5.984;2023-05-29T00:23:00;40.91;34.46;52.90;;
69619;Laerm;57653;51.434;5.984;2023-05-29T00:23:12;38.65;34.48;49.21;;
69619;Laerm;57653;51.434;5.984;2023-05-29T00:23:22;36.03;33.94;40.55;;
69619;Laerm;57653;51.434;5.984;2023-05-29T00:23:32;36.91;34.26;43.39;;
69619;Laerm;57653;51.434;5.984;2023-05-29T00:23:42;38.36;35.85;47.65;;
69619;Laerm;57653;51.434;5.984;2023-05-29T00:23:53;44.31;36.99;58.60;;
69619;Laerm;57653;51.434;5.984;2023-05-29T00:24:03;51.03;38.37;62.88;;
69619;Laerm;57653;51.434;5.984;2023-05-29T00:24:17;46.44;37.36;59.84;;
69619;Laerm;57653;51.434;5.984;2023-05-29T00:24:27;49.33;35.65;66.07;;
69619;Laerm;57653;51.434;5.984;2023-05-29T00:24:37;39.96;35.41;49.75;;
69619;Laerm;57653;51.434;5.984;2023-05-29T00:24:47;39.09;35.18;56.88;;
69619;Laerm;57653;51.434;5.984;2023-05-29T00:24:58;44.96;36.87;56.20;;
69619;Laerm;57653;51.434;5.984;2023-05-29T00:25:08;44.40;36.98;54.83;;
69619;Laerm;57653;51.434;5.984;2023-05-29T00:25:18;45.69;36.15;56.87;;
69619;Laerm;57653;51.434;5.984;2023-05-29T00:25:29;46.21;35.33;61.48;;
69619;Laerm;57653;51.434;5.984;2023-05-29T00:25:39;37.96;35.21;45.64;;
69619;Laerm;57653;51.434;5.984;2023-05-29T00:25:53;35.92;34.21;40.47;;
69619;Laerm;57653;51.434;5.984;2023-05-29T00:26:03;36.45;34.55;40.54;;
69619;Laerm;57653;51.434;5.984;2023-05-29T00:26:13;36.87;35.10;46.04;;
69619;Laerm;57653;51.434;5.984;2023-05-29T00:26:26;45.32;35.80;60.63;;
69619;Laerm;57653;51.434;5.984;2023-05-29T00:26:36;46.45;37.55;57.84;;
69619;Laerm;57653;51.434;5.984;2023-05-29T00:26:47;48.35;37.19;62.25;;
69619;Laerm;57653;51.434;5.984;2023-05-29T00:26:57;45.05;35.38;57.32;;
69619;Laerm;57653;51.434;5.984;2023-05-29T00:27:08;41.51;34.90;53.57;;
69619;Laerm;57653;51.434;5.984;2023-05-29T00:27:19;38.52;34.60;50.59;;
69619;Laerm;57653;51.434;5.984;2023-05-29T00:27:30;35.55;33.83;45.16;;
69619;Laerm;57653;51.434;5.984;2023-05-29T00:27:40;35.10;33.67;40.26;;
69619;Laerm;57653;51.434;5.984;2023-05-29T00:27:51;35.38;33.68;38.19;;
69619;Laerm;57653;51.434;5.984;2023-05-29T00:28:01;36.06;33.59;44.07;;
69619;Laerm;57653;51.434;5.984;2023-05-29T00:28:11;36.36;34.72;39.11;;
69619;Laerm;57653;51.434;5.984;2023-05-29T00:28:22;40.09;34.58;56.92;;
69619;Laerm;57653;51.434;5.984;2023-05-29T00:28:32;41.55;34.20;57.02;;
69619;Laerm;57653;51.434;5.984;2023-05-29T00:28:43;37.77;34.20;50.62;;
69619;Laerm;57653;51.434;5.984;2023-05-29T00:28:53;35.77;33.87;43.01;;
69619;Laerm;57653;51.434;5.984;2023-05-29T00:29:03;34.83;33.33;36.74;;
69619;Laerm;57653;51.434;5.984;2023-05-29T00:29:13;34.98;33.76;39.06;;
69619;Laerm;57653;51.434;5.984;2023-05-29T00:29:24;35.37;33.45;42.19;;
69619;Laerm;57653;51.434;5.984;2023-05-29T00:29:35;35.43;33.72;39.43;;
69619;Laerm;57653;51.434;5.984;2023-05-29T00:29:46;36.23;34.15;48.76;;
69619;Laerm;57653;51.434;5.984;2023-05-29T00:29:56;35.59;33.80;43.25;;
69619;Laerm;57653;51.434;5.984;2023-05-29T00:30:07;40.24;33.97;56.56;;
69619;Laerm;57653;51.434;5.984;2023-05-29T00:30:17;43.08;36.73;54.24;;
69619;Laerm;57653;51.434;5.984;2023-05-29T00:30:28;37.72;34.40;45.50;;
69619;Laerm;57653;51.434;5.984;2023-05-29T00:30:41;37.09;33.95;50.70;;
69619;Laerm;57653;51.434;5.984;2023-05-29T00:30:51;41.46;33.81;54.75;;
69619;Laerm;57653;51.434;5.984;2023-05-29T00:31:01;45.50;36.22;55.50;;
69619;Laerm;57653;51.434;5.984;2023-05-29T00:31:12;46.75;38.58;61.28;;
69619;Laerm;57653;51.434;5.984;2023-05-29T00:31:22;45.93;37.81;59.31;;
69619;Laerm;57653;51.434;5.984;2023-05-29T00:31:34;41.42;35.52;57.25;;
69619;Laerm;57653;51.434;5.984;2023-05-29T00:31:46;43.11;35.01;59.44;;
69619;Laerm;57653;51.434;5.984;2023-05-29T00:31:56;41.05;35.01;55.20;;
69619;Laerm;57653;51.434;5.984;2023-05-29T00:32:07;45.95;36.05;61.85;;
69619;Laerm;57653;51.434;5.984;2023-05-29T00:32:17;39.72;34.74;50.06;;
69619;Laerm;57653;51.434;5.984;2023-05-29T00:32:27;37.17;34.68;46.44;;
69619;Laerm;57653;51.434;5.984;2023-05-29T00:32:37;36.47;34.41;43.48;;
69619;Laerm;57653;51.434;5.984;2023-05-29T00:32:48;35.99;34.27;41.85;;
69619;Laerm;57653;51.434;5.984;2023-05-29T00:32:58;35.53;33.78;39.96;;
69619;Laerm;57653;51.434;5.984;2023-05-29T00:33:08;36.73;34.26;45.08;;
69619;Laerm;57653;51.434;5.984;2023-05-29T00:33:19;39.88;36.29;55.59;;
69619;Laerm;57653;51.434;5.984;2023-05-29T00:33:30;41.37;36.99;49.47;;
69619;Laerm;57653;51.434;5.984;2023-05-29T00:33:40;43.89;38.56;56.30;;
69619;Laerm;57653;51.434;5.984;2023-05-29T00:33:50;43.62;38.18;61.07;;
69619;Laerm;57653;51.434;5.984;2023-05-29T00:34:01;42.84;38.27;53.46;;
69619;Laerm;57653;51.434;5.984;2023-05-29T00:34:11;51.55;40.21;65.47;;
69619;Laerm;57653;51.434;5.984;2023-05-29T00:34:22;49.65;39.64;62.12;;
69619;Laerm;57653;51.434;5.984;2023-05-29T00:34:33;49.64;40.18;65.53;;
69619;Laerm;57653;51.434;5.984;2023-05-29T00:34:43;45.47;39.06;58.40;;
69619;Laerm;57653;51.434;5.984;2023-05-29T00:34:54;41.93;35.84;55.84;;
69619;Laerm;57653;51.434;5.984;2023-05-29T00:35:05;40.98;34.42;54.22;;
69619;Laerm;57653;51.434;5.984;2023-05-29T00:35:15;38.66;34.45;49.87;;
69619;Laerm;57653;51.434;5.984;2023-05-29T00:35:25;38.53;34.45;54.02;;
69619;Laerm;57653;51.434;5.984;2023-05-29T00:35:35;37.74;34.36;48.26;;
69619;Laerm;57653;51.434;5.984;2023-05-29T00:35:47;37.44;34.16;48.61;;
69619;Laerm;57653;51.434;5.984;2023-05-29T00:35:57;36.63;34.77;40.21;;
69619;Laerm;57653;51.434;5.984;2023-05-29T00:36:07;45.29;36.97;58.28;;
69619;Laerm;57653;51.434;5.984;2023-05-29T00:36:18;46.44;36.94;58.57;;
69619;Laerm;57653;51.434;5.984;2023-05-29T00:36:28;41.07;35.43;53.24;;
69619;Laerm;57653;51.434;5.984;2023-05-29T00:36:39;41.78;35.47;50.53;;
69619;Laerm;57653;51.434;5.984;2023-05-29T00:36:50;39.57;34.66;52.18;;
69619;Laerm;57653;51.434;5.984;2023-05-29T00:37:00;37.03;34.05;49.68;;
69619;Laerm;57653;51.434;5.984;2023-05-29T00:37:11;35.21;33.63;38.89;;
69619;Laerm;57653;51.434;5.984;2023-05-29T00:37:22;40.94;33.78;54.40;;
69619;Laerm;57653;51.434;5.984;2023-05-29T00:37:32;42.90;36.33;56.12;;
69619;Laerm;57653;51.434;5.984;2023-05-29T00:37:43;47.92;40.81;64.09;;
69619;Laerm;57653;51.434;5.984;2023-05-29T00:37:53;53.51;41.17;65.70;;
69619;Laerm;57653;51.434;5.984;2023-05-29T00:38:03;49.83;39.24;59.72;;
69619;Laerm;57653;51.434;5.984;2023-05-29T00:38:13;39.57;35.22;53.42;;
69619;Laerm;57653;51.434;5.984;2023-05-29T00:38:24;36.19;33.75;40.60;;
69619;Laerm;57653;51.434;5.984;2023-05-29T00:38:34;36.40;34.46;44.76;;
69619;Laerm;57653;51.434;5.984;2023-05-29T00:38:44;36.38;34.39;41.28;;
69619;Laerm;57653;51.434;5.984;2023-05-29T00:38:55;36.01;34.12;39.75;;
69619;Laerm;57653;51.434;5.984;2023-05-29T00:39:05;37.36;33.96;51.41;;
69619;Laerm;57653;51.434;5.984;2023-05-29T00:39:15;36.51;34.64;42.46;;
69619;Laerm;57653;51.434;5.984;2023-05-29T00:39:25;44.64;34.59;57.33;;
69619;Laerm;57653;51.434;5.984;2023-05-29T00:39:36;41.06;36.89;51.06;;
69619;Laerm;57653;51.434;5.984;2023-05-29T00:39:46;37.04;35.16;45.67;;
69619;Laerm;57653;51.434;5.984;2023-05-29T00:39:56;41.15;35.90;54.68;;
69619;Laerm;57653;51.434;5.984;2023-05-29T00:40:07;37.17;35.01;41.96;;
69619;Laerm;57653;51.434;5.984;2023-05-29T00:40:17;36.22;34.11;48.72;;
69619;Laerm;57653;51.434;5.984;2023-05-29T00:40:27;36.13;34.50;43.47;;
69619;Laerm;57653;51.434;5.984;2023-05-29T00:40:39;35.99;34.09;39.13;;
69619;Laerm;57653;51.434;5.984;2023-05-29T00:40:49;37.87;35.54;47.83;;
69619;Laerm;57653;51.434;5.984;2023-05-29T00:41:00;37.00;35.11;51.24;;
69619;Laerm;57653;51.434;5.984;2023-05-29T00:41:16;39.70;34.19;57.70;;
69619;Laerm;57653;51.434;5.984;2023-05-29T00:41:26;35.75;33.82;41.36;;
69619;Laerm;57653;51.434;5.984;2023-05-29T00:41:36;36.42;34.14;41.79;;
69619;Laerm;57653;51.434;5.984;2023-05-29T00:41:47;38.58;34.95;51.34;;
69619;Laerm;57653;51.434;5.984;2023-05-29T00:42:00;41.63;34.80;55.47;;
69619;Laerm;57653;51.434;5.984;2023-05-29T00:42:11;38.52;34.80;53.10;;
69619;Laerm;57653;51.434;5.984;2023-05-29T00:42:21;35.89;34.14;38.69;;
69619;Laerm;57653;51.434;5.984;2023-05-29T00:42:31;38.37;34.59;52.51;;
69619;Laerm;57653;51.434;5.984;2023-05-29T00:42:42;41.51;35.82;54.38;;
69619;Laerm;57653;51.434;5.984;2023-05-29T00:42:52;36.54;34.16;46.91;;
69619;Laerm;57653;51.434;5.984;2023-05-29T00:43:02;35.04;33.74;40.40;;
69619;Laerm;57653;51.434;5.984;2023-05-29T00:43:13;37.29;34.04;51.38;;
69619;Laerm;57653;51.434;5.984;2023-05-29T00:43:23;41.50;34.13;56.58;;
69619;Laerm;57653;51.434;5.984;2023-05-29T00:43:33;37.86;34.79;47.50;;
69619;Laerm;57653;51.434;5.984;2023-05-29T00:43:44;36.47;34.68;40.09;;
69619;Laerm;57653;51.434;5.984;2023-05-29T00:43:54;36.03;34.33;41.95;;
69619;Laerm;57653;51.434;5.984;2023-05-29T00:44:04;35.33;33.95;40.10;;
69619;Laerm;57653;51.434;5.984;2023-05-29T00:44:15;35.19;33.49;42.67;;
69619;Laerm;57653;51.434;5.984;2023-05-29T00:44:25;35.33;33.63;39.96;;
69619;Laerm;57653;51.434;5.984;2023-05-29T00:44:35;35.34;33.81;37.81;;
69619;Laerm;57653;51.434;5.984;2023-05-29T00:44:46;35.34;33.94;40.24;;
69619;Laerm;57653;51.434;5.984;2023-05-29T00:44:56;45.28;34.70;59.06;;
69619;Laerm;57653;51.434;5.984;2023-05-29T00:45:06;45.26;36.38;61.17;;
69619;Laerm;57653;51.434;5.984;2023-05-29T00:45:17;43.09;35.22;58.81;;
69619;Laerm;57653;51.434;5.984;2023-05-29T00:45:28;40.51;34.83;52.36;;
69619;Laerm;57653;51.434;5.984;2023-05-29T00:45:38;41.17;35.05;55.68;;
69619;Laerm;57653;51.434;5.984;2023-05-29T00:45:48;39.29;34.65;51.46;;
69619;Laerm;57653;51.434;5.984;2023-05-29T00:45:59;37.56;34.58;49.69;;
69619;Laerm;57653;51.434;5.984;2023-05-29T00:46:10;36.52;34.38;42.18;;
69619;Laerm;57653;51.434;5.984;2023-05-29T00:46:22;39.38;34.50;54.92;;
69619;Laerm;57653;51.434;5.984;2023-05-29T00:46:33;36.78;35.35;40.44;;
69619;Laerm;57653;51.434;5.984;2023-05-29T00:46:43;38.41;35.22;45.01;;
69619;Laerm;57653;51.434;5.984;2023-05-29T00:46:53;40.87;36.06;52.02;;
69619;Laerm;57653;51.434;5.984;2023-05-29T00:47:04;49.85;38.50;64.05;;
69619;Laerm;57653;51.434;5.984;2023-05-29T00:47:14;51.23;39.48;62.03;;
69619;Laerm;57653;51.434;5.984;2023-05-29T00:47:25;43.49;37.46;54.79;;
69619;Laerm;57653;51.434;5.984;2023-05-29T00:47:36;47.11;37.06;60.96;;
69619;Laerm;57653;51.434;5.984;2023-05-29T00:47:46;41.31;36.51;53.48;;
69619;Laerm;57653;51.434;5.984;2023-05-29T00:47:57;39.24;35.58;49.64;;
69619;Laerm;57653;51.434;5.984;2023-05-29T00:48:07;39.43;34.78;53.21;;
69619;Laerm;57653;51.434;5.984;2023-05-29T00:48:18;46.86;38.16;55.95;;
69619;Laerm;57653;51.434;5.984;2023-05-29T00:48:28;44.45;38.29;57.78;;
69619;Laerm;57653;51.434;5.984;2023-05-29T00:48:38;42.59;36.51;53.20;;
69619;Laerm;57653;51.434;5.984;2023-05-29T00:48:51;42.48;36.82;55.46;;
69619;Laerm;57653;51.434;5.984;2023-05-29T00:49:03;55.72;37.20;69.21;;
69619;Laerm;57653;51.434;5.984;2023-05-29T00:49:14;53.47;40.54;66.30;;
69619;Laerm;57653;51.434;5.984;2023-05-29T00:49:25;47.08;37.69;60.88;;
69619;Laerm;57653;51.434;5.984;2023-05-29T00:49:35;48.29;36.93;61.12;;
69619;Laerm;57653;51.434;5.984;2023-05-29T00:49:46;44.08;35.68;56.73;;
69619;Laerm;57653;51.434;5.984;2023-05-29T00:49:57;38.00;34.81;49.44;;
69619;Laerm;57653;51.434;5.984;2023-05-29T00:50:10;37.22;34.83;45.90;;
69619;Laerm;57653;51.434;5.984;2023-05-29T00:50:23;45.19;38.82;59.38;;
69619;Laerm;57653;51.434;5.984;2023-05-29T00:50:33;44.96;38.28;57.89;;
69619;Laerm;57653;51.434;5.984;2023-05-29T00:50:44;45.28;37.27;62.03;;
69619;Laerm;57653;51.434;5.984;2023-05-29T00:50:55;41.56;35.58;55.42;;
69619;Laerm;57653;51.434;5.984;2023-05-29T00:51:05;46.28;36.12;62.93;;
69619;Laerm;57653;51.434;5.984;2023-05-29T00:51:16;40.24;35.43;51.99;;
69619;Laerm;57653;51.434;5.984;2023-05-29T00:51:27;37.51;35.16;50.81;;
69619;Laerm;57653;51.434;5.984;2023-05-29T00:51:37;43.36;35.91;57.23;;
69619;Laerm;57653;51.434;5.984;2023-05-29T00:51:48;42.03;36.54;56.40;;
69619;Laerm;57653;51.434;5.984;2023-05-29T00:52:00;41.56;35.85;56.71;;
69619;Laerm;57653;51.434;5.984;2023-05-29T00:52:10;39.34;35.14;53.26;;
69619;Laerm;57653;51.434;5.984;2023-05-29T00:52:21;46.44;37.26;62.02;;
69619;Laerm;57653;51.434;5.984;2023-05-29T00:52:31;46.56;37.07;62.19;;
69619;Laerm;57653;51.434;5.984;2023-05-29T00:52:42;44.05;35.59;59.90;;
69619;Laerm;57653;51.434;5.984;2023-05-29T00:52:53;48.28;34.81;65.96;;
69619;Laerm;57653;51.434;5.984;2023-05-29T00:53:03;43.68;35.32;57.86;;
69619;Laerm;57653;51.434;5.984;2023-05-29T00:53:14;44.72;36.08;55.30;;
69619;Laerm;57653;51.434;5.984;2023-05-29T00:53:25;45.84;36.11;61.43;;
69619;Laerm;57653;51.434;5.984;2023-05-29T00:53:36;41.07;35.53;58.70;;
69619;Laerm;57653;51.434;5.984;2023-05-29T00:53:46;44.39;35.80;55.85;;
69619;Laerm;57653;51.434;5.984;2023-05-29T00:53:58;40.06;34.19;54.37;;
69619;Laerm;57653;51.434;5.984;2023-05-29T00:54:11;38.48;35.04;47.53;;
69619;Laerm;57653;51.434;5.984;2023-05-29T00:54:23;36.82;34.14;46.29;;
69619;Laerm;57653;51.434;5.984;2023-05-29T00:54:36;38.33;35.20;47.53;;
69619;Laerm;57653;51.434;5.984;2023-05-29T00:54:47;37.21;34.56;50.38;;
69619;Laerm;57653;51.434;5.984;2023-05-29T00:54:57;38.75;34.43;53.01;;
69619;Laerm;57653;51.434;5.984;2023-05-29T00:55:08;36.36;34.54;42.51;;
69619;Laerm;57653;51.434;5.984;2023-05-29T00:55:19;37.16;34.59;44.03;;
69619;Laerm;57653;51.434;5.984;2023-05-29T00:55:29;41.70;35.52;58.09;;
69619;Laerm;57653;51.434;5.984;2023-05-29T00:55:40;41.59;36.03;57.31;;
69619;Laerm;57653;51.434;5.984;2023-05-29T00:55:50;47.86;35.59;63.07;;
69619;Laerm;57653;51.434;5.984;2023-05-29T00:56:01;42.86;35.00;57.95;;
69619;Laerm;57653;51.434;5.984;2023-05-29T00:56:12;38.69;34.90;53.11;;
69619;Laerm;57653;51.434;5.984;2023-05-29T00:56:22;41.54;35.10;54.60;;
69619;Laerm;57653;51.434;5.984;2023-05-29T00:56:35;42.16;34.84;56.39;;
69619;Laerm;57653;51.434;5.984;2023-05-29T00:56:46;45.73;37.62;60.23;;
69619;Laerm;57653;51.434;5.984;2023-05-29T00:56:57;45.95;37.03;62.96;;
69619;Laerm;57653;51.434;5.984;2023-05-29T00:57:08;42.97;37.32;59.19;;
69619;Laerm;57653;51.434;5.984;2023-05-29T00:57:18;47.21;38.21;60.11;;
69619;Laerm;57653;51.434;5.984;2023-05-29T00:57:29;44.16;35.81;57.87;;
69619;Laerm;57653;51.434;5.984;2023-05-29T00:57:40;43.93;36.64;53.85;;
69619;Laerm;57653;51.434;5.984;2023-05-29T00:57:50;44.30;35.78;55.63;;
69619;Laerm;57653;51.434;5.984;2023-05-29T00:58:01;43.33;35.42;54.52;;
69619;Laerm;57653;51.434;5.984;2023-05-29T00:58:11;40.06;35.55;48.99;;
69619;Laerm;57653;51.434;5.984;2023-05-29T00:58:22;38.15;35.62;47.65;;
69619;Laerm;57653;51.434;5.984;2023-05-29T00:58:32;39.24;35.43;47.93;;
69619;Laerm;57653;51.434;5.984;2023-05-29T00:58:43;39.89;37.25;46.40;;
69619;Laerm;57653;51.434;5.984;2023-05-29T00:58:53;43.84;36.73;59.74;;
69619;Laerm;57653;51.434;5.984;2023-05-29T00:59:04;45.60;36.91;57.14;;
69619;Laerm;57653;51.434;5.984;2023-05-29T00:59:15;40.35;35.56;57.11;;
69619;Laerm;57653;51.434;5.984;2023-05-29T00:59:30;39.32;34.93;52.03;;
69619;Laerm;57653;51.434;5.984;2023-05-29T00:59:41;39.98;35.00;51.83;;
69619;Laerm;57653;51.434;5.984;2023-05-29T00:59:52;46.52;37.71;61.41;;